Time;durP1;ratioP1;P1;durP2;ratioP2;P2;SDS_P1;SDS_P2;PMS_P1;PMS_P2;Temp;Humidity;BMP_temperature;BMP_pressure;BME280_temperature;BME280_humidity;BME280_pressure;Samples;Min_cycle;Max_cycle;Signal;HPM_P1;HPM_P2
2020/12/02 00:01:01;;;;;;;2.00;1.80;;;19.90;49.40;;;;;;5056855;28;20021;-50
2020/12/02 00:03:39;;;;;;;1.85;1.70;;;19.90;49.30;;;;;;5056308;28;20478;-47
2020/12/02 00:06:07;;;;;;;2.20;2.00;;;19.90;49.40;;;;;;5056847;28;20021;-50
2020/12/02 00:08:37;;;;;;;3.67;2.15;;;19.90;49.30;;;;;;5056012;28;20128;-47
2020/12/02 00:11:07;;;;;;;3.17;2.22;;;19.90;49.40;;;;;;5056941;28;20036;-50
2020/12/02 00:13:38;;;;;;;3.60;1.95;;;19.80;49.30;;;;;;5056086;28;20448;-50
2020/12/02 00:16:05;;;;;;;2.47;1.88;;;19.90;49.40;;;;;;5051101;28;20036;-47
2020/12/02 00:18:32;;;;;;;2.55;2.33;;;19.80;49.30;;;;;;5036147;28;20034;-49
2020/12/02 00:20:57;;;;;;;2.55;2.00;;;19.80;49.30;;;;;;5036625;28;20086;-49
2020/12/02 00:23:23;;;;;;;2.35;1.67;;;19.80;49.30;;;;;;5036287;28;20100;-46
2020/12/02 00:25:48;;;;;;;2.95;2.03;;;19.80;49.30;;;;;;5036416;28;20036;-49
2020/12/02 00:28:14;;;;;;;2.72;2.00;;;19.80;49.30;;;;;;5036124;28;20515;-49
2020/12/02 00:30:41;;;;;;;2.85;2.15;;;19.80;49.30;;;;;;5036525;28;20078;-51
2020/12/02 00:33:12;;;;;;;2.30;2.10;;;19.80;49.30;;;;;;5036337;28;20017;-52
2020/12/02 00:35:38;;;;;;;3.63;2.08;;;19.80;49.40;;;;;;5036165;28;20018;-50
2020/12/02 00:38:07;;;;;;;2.47;2.15;;;19.80;49.30;;;;;;5036346;28;20026;-50
2020/12/02 00:40:33;;;;;;;2.40;2.00;;;19.70;49.30;;;;;;5036294;28;20021;-49
2020/12/02 00:42:59;;;;;;;3.08;2.03;;;19.70;49.30;;;;;;5036104;28;20068;-50
2020/12/02 00:45:24;;;;;;;2.50;2.30;;;19.80;49.30;;;;;;5036358;28;20049;-52
2020/12/02 00:47:50;;;;;;;2.97;2.05;;;19.70;49.30;;;;;;5032828;28;20049;-49
2020/12/02 00:50:18;;;;;;;2.30;2.10;;;19.70;49.30;;;;;;5015822;28;20045;-49
2020/12/02 00:53:06;;;;;;;2.47;2.20;;;19.70;49.30;;;;;;5016209;28;20033;-49
2020/12/02 00:55:32;;;;;;;2.45;2.17;;;19.70;49.30;;;;;;5016125;28;20106;-47
2020/12/02 00:58:00;;;;;;;2.10;1.90;;;19.70;49.30;;;;;;5016309;28;20022;-54
2020/12/02 01:00:27;;;;;;;2.55;2.10;;;19.60;49.30;;;;;;5016147;28;20033;-47
2020/12/02 01:03:13;;;;;;;2.58;2.33;;;19.60;49.20;;;;;;5016158;28;20053;-52
2020/12/02 01:05:39;;;;;;;2.25;1.98;;;19.60;49.30;;;;;;5015592;28;20452;-48
2020/12/02 01:08:27;;;;;;;2.35;2.13;;;19.60;49.20;;;;;;5015658;28;20040;-52
2020/12/02 01:11:14;;;;;;;2.78;2.28;;;19.60;49.90;;;;;;5015478;28;20029;-53
2020/12/02 01:13:40;;;;;;;2.92;2.60;;;19.60;49.20;;;;;;5015790;28;20026;-52
2020/12/02 01:16:11;;;;;;;2.58;2.38;;;19.60;49.30;;;;;;5016177;28;20091;-53
2020/12/02 01:18:37;;;;;;;3.40;2.22;;;19.60;49.30;;;;;;5015580;28;20044;-47
2020/12/02 01:21:26;;;;;;;3.25;2.22;;;19.60;49.30;;;;;;5015827;28;20029;-48
2020/12/02 01:23:59;;;;;;;2.88;2.05;;;19.60;49.20;;;;;;5015649;28;20041;-49
2020/12/02 01:26:31;;;;;;;2.40;2.20;;;19.60;49.20;;;;;;5015630;28;20026;-51
2020/12/02 01:29:00;;;;;;;5.22;2.60;;;19.50;49.20;;;;;;5015510;28;20049;-50
2020/12/02 01:31:26;;;;;;;4.53;3.30;;;19.50;49.30;;;;;;5015277;28;20026;-49
2020/12/02 01:33:53;;;;;;;4.35;2.25;;;19.50;49.20;;;;;;5015518;28;20042;-52
2020/12/02 01:36:22;;;;;;;4.53;2.67;;;19.50;49.20;;;;;;5015620;28;20026;-50
2020/12/02 01:38:49;;;;;;;2.42;2.22;;;19.50;49.30;;;;;;5015656;28;20504;-46
2020/12/02 01:41:16;;;;;;;2.55;2.30;;;19.50;49.30;;;;;;5015553;28;20483;-49
2020/12/02 01:43:41;;;;;;;2.53;2.33;;;19.50;49.30;;;;;;5014964;28;20417;-48
2020/12/02 01:46:20;;;;;;;2.58;2.22;;;19.50;49.30;;;;;;5015495;28;20053;-49
2020/12/02 01:49:24;;;;;;;2.60;2.40;;;19.50;49.30;;;;;;5015820;28;20049;-48
2020/12/02 01:52:01;;;;;;;;;;;19.50;49.20;;;;;;5014643;28;20380;-51
2020/12/02 01:54:41;;;;;;;2.15;1.95;;;19.40;49.20;;;;;;5015079;28;19905;-46
2020/12/02 01:57:09;;;;;;;3.45;2.40;;;19.40;49.20;;;;;;5015202;28;20022;-49
2020/12/02 02:00:04;;;;;;;3.42;2.75;;;19.40;49.30;;;;;;5015089;28;20429;-49
2020/12/02 02:02:56;;;;;;;2.55;2.35;;;19.40;49.30;;;;;;5015442;28;20097;-48
2020/12/02 02:05:29;;;;;;;3.05;2.50;;;19.40;49.30;;;;;;5015007;28;20026;-52
2020/12/02 02:07:56;;;;;;;2.80;2.50;;;19.40;49.30;;;;;;5015664;28;20117;-47
2020/12/02 02:10:35;;;;;;;3.25;2.70;;;19.30;49.30;;;;;;5014772;28;20038;-50
2020/12/02 02:13:38;;;;;;;2.78;2.47;;;19.40;49.30;;;;;;5014752;28;20029;-46
2020/12/02 02:16:10;;;;;;;3.63;2.80;;;19.40;49.30;;;;;;5015031;28;20072;-48
2020/12/02 02:18:36;;;;;;;3.03;2.35;;;19.30;49.20;;;;;;5014862;28;20026;-54
2020/12/02 02:21:19;;;;;;;3.00;2.70;;;19.30;49.30;;;;;;5016307;28;20037;-52
2020/12/02 02:23:45;;;;;;;2.75;2.47;;;19.30;49.30;;;;;;5019302;28;20461;-49
2020/12/02 02:26:28;;;;;;;4.38;2.95;;;19.30;49.20;;;;;;5019130;28;20040;-47
2020/12/02 02:28:55;;;;;;;3.42;2.20;;;19.30;49.20;;;;;;5018888;28;20340;-51
2020/12/02 02:31:25;;;;;;;2.45;2.25;;;19.30;49.30;;;;;;5019016;28;20345;-47
2020/12/02 02:33:51;;;;;;;3.00;2.80;;;19.30;49.30;;;;;;5018304;28;20037;-53
2020/12/02 02:36:21;;;;;;;3.63;2.90;;;19.30;49.30;;;;;;5018679;28;20437;-49
2020/12/02 02:38:47;;;;;;;3.00;2.60;;;19.30;49.30;;;;;;5019047;28;20026;-52
2020/12/02 02:41:13;;;;;;;3.05;2.65;;;19.30;49.30;;;;;;5018823;28;20455;-47
2020/12/02 02:43:39;;;;;;;3.10;2.80;;;19.30;49.20;;;;;;5018505;28;20030;-48
2020/12/02 02:46:06;;;;;;;3.78;2.53;;;19.30;49.20;;;;;;5018742;28;20116;-50
2020/12/02 02:48:32;;;;;;;3.28;2.70;;;19.30;49.30;;;;;;5018090;28;20453;-49
2020/12/02 02:50:58;;;;;;;4.90;2.78;;;19.30;49.30;;;;;;5018470;28;20322;-48
2020/12/02 02:53:26;;;;;;;2.40;2.20;;;19.20;49.20;;;;;;5018055;28;20065;-51
2020/12/02 02:55:53;;;;;;;2.97;2.70;;;19.20;49.20;;;;;;5018372;28;20038;-50
2020/12/02 02:58:19;;;;;;;3.88;2.85;;;19.20;49.20;;;;;;5018635;28;20030;-51
2020/12/02 03:00:45;;;;;;;2.90;2.58;;;19.20;49.20;;;;;;5018278;28;20048;-51
2020/12/02 03:03:13;;;;;;;3.63;2.92;;;19.20;49.20;;;;;;5017994;28;20033;-52
2020/12/02 03:05:39;;;;;;;2.85;2.55;;;19.20;49.20;;;;;;5018451;28;20026;-51
2020/12/02 03:08:09;;;;;;;3.03;2.75;;;19.20;49.20;;;;;;5017948;28;20041;-50
2020/12/02 03:10:37;;;;;;;3.90;2.60;;;19.20;49.20;;;;;;5018343;28;20033;-49
2020/12/02 03:13:19;;;;;;;3.28;2.97;;;19.20;49.20;;;;;;5017909;28;20022;-54
2020/12/02 03:15:45;;;;;;;2.80;2.50;;;19.20;49.20;;;;;;5017859;28;20164;-53
2020/12/02 03:18:12;;;;;;;3.55;2.85;;;19.10;49.20;;;;;;5017551;28;20018;-49
2020/12/02 03:20:41;;;;;;;3.90;2.90;;;19.10;49.20;;;;;;5017954;28;20022;-50
2020/12/02 03:23:10;;;;;;;3.45;2.92;;;19.10;49.20;;;;;;5018255;28;20030;-51
2020/12/02 03:25:37;;;;;;;3.45;3.15;;;19.10;49.20;;;;;;5017809;28;20033;-47
2020/12/02 03:28:03;;;;;;;2.53;2.33;;;19.10;49.20;;;;;;5017678;28;20061;-49
2020/12/02 03:30:29;;;;;;;3.50;3.20;;;19.10;49.20;;;;;;5017229;28;20034;-47
2020/12/02 03:32:55;;;;;;;4.20;2.80;;;19.10;49.20;;;;;;5017023;28;20026;-52
2020/12/02 03:35:21;;;;;;;2.95;2.60;;;19.10;49.20;;;;;;5017648;28;20092;-49
2020/12/02 03:37:46;;;;;;;3.33;3.03;;;19.10;49.20;;;;;;5017304;28;20030;-49
2020/12/02 03:40:12;;;;;;;3.70;3.30;;;19.10;49.20;;;;;;5000271;28;20076;-47
2020/12/02 03:42:38;;;;;;;2.92;2.63;;;19.10;49.20;;;;;;5017420;28;20180;-51
2020/12/02 03:45:06;;;;;;;3.38;3.00;;;19.10;49.20;;;;;;5017300;28;20056;-47
2020/12/02 03:47:31;;;;;;;3.28;2.85;;;19.10;49.20;;;;;;5017453;28;20022;-49
2020/12/02 03:49:57;;;;;;;4.68;3.50;;;19.10;49.20;;;;;;5017297;28;20065;-48
2020/12/02 03:52:22;;;;;;;3.78;3.20;;;19.10;49.20;;;;;;5017218;28;20022;-49
2020/12/02 03:54:48;;;;;;;4.03;3.20;;;19.10;49.20;;;;;;5017154;28;20452;-51
2020/12/02 03:57:14;;;;;;;3.50;2.92;;;19.00;49.10;;;;;;5017444;28;20022;-51
2020/12/02 03:59:39;;;;;;;4.13;3.40;;;19.00;49.20;;;;;;5017017;28;20026;-50
2020/12/02 04:02:05;;;;;;;3.60;3.05;;;19.00;49.20;;;;;;5017407;28;20049;-49
2020/12/02 04:04:31;;;;;;;3.88;2.95;;;19.00;49.20;;;;;;5017366;28;20041;-50
2020/12/02 04:06:57;;;;;;;3.38;3.08;;;19.00;49.20;;;;;;5016985;28;20026;-49
2020/12/02 04:09:22;;;;;;;4.30;3.20;;;19.00;49.20;;;;;;5016845;28;20463;-51
2020/12/02 04:11:48;;;;;;;4.28;3.58;;;19.00;49.20;;;;;;5017217;28;20471;-47
2020/12/02 04:14:14;;;;;;;4.10;3.42;;;19.00;49.20;;;;;;5016718;28;20032;-52
2020/12/02 04:16:39;;;;;;;3.75;2.97;;;19.00;49.20;;;;;;5016499;28;20411;-50
2020/12/02 04:19:05;;;;;;;4.40;3.28;;;19.00;49.20;;;;;;5016873;28;20084;-51
2020/12/02 04:21:31;;;;;;;4.90;3.17;;;19.00;49.20;;;;;;5017283;28;20064;-51
2020/12/02 04:23:57;;;;;;;3.55;3.22;;;19.00;49.20;;;;;;5016411;28;20029;-48
2020/12/02 04:26:24;;;;;;;3.97;3.33;;;18.90;49.20;;;;;;5016899;28;20030;-52
2020/12/02 04:28:50;;;;;;;4.18;3.28;;;18.90;49.10;;;;;;5016273;28;20510;-46
2020/12/02 04:31:15;;;;;;;5.13;3.70;;;19.00;49.20;;;;;;5016489;28;20030;-50
2020/12/02 04:33:41;;;;;;;4.65;3.60;;;18.90;49.10;;;;;;5016910;28;20034;-53
2020/12/02 04:36:09;;;;;;;3.15;2.70;;;18.90;49.10;;;;;;5016639;28;20022;-49
2020/12/02 04:38:34;;;;;;;4.57;3.58;;;18.90;49.10;;;;;;5016643;28;20041;-53
2020/12/02 04:41:05;;;;;;;4.00;3.50;;;18.90;49.20;;;;;;5016667;28;20345;-53
2020/12/02 04:43:38;;;;;;;3.63;3.33;;;18.90;49.20;;;;;;5016282;28;20097;-46
2020/12/02 04:46:13;;;;;;;4.07;3.03;;;18.90;49.20;;;;;;5016249;28;20440;-51
2020/12/02 04:48:41;;;;;;;3.55;3.25;;;18.90;49.20;;;;;;5015668;28;20472;-47
2020/12/02 04:51:20;;;;;;;3.90;3.30;;;18.90;49.20;;;;;;5016423;28;20129;-51
2020/12/02 04:53:51;;;;;;;3.58;3.28;;;18.90;49.20;;;;;;5015922;28;20026;-48
2020/12/02 04:56:17;;;;;;;4.78;3.47;;;18.90;49.20;;;;;;5015930;28;20030;-54
2020/12/02 04:58:47;;;;;;;4.95;3.40;;;18.90;49.20;;;;;;5016255;28;20084;-48
2020/12/02 05:01:14;;;;;;;3.25;2.83;;;18.90;49.20;;;;;;5016233;28;20026;-49
2020/12/02 05:04:13;;;;;;;3.58;3.10;;;18.80;49.20;;;;;;5015980;28;20057;-48
2020/12/02 05:06:41;;;;;;;4.18;3.25;;;18.80;49.20;;;;;;5015923;28;20034;-53
2020/12/02 05:09:25;;;;;;;3.30;3.00;;;18.80;49.20;;;;;;5016087;28;20045;-48
2020/12/02 05:12:01;;;;;;;4.07;2.90;;;18.80;49.20;;;;;;5016128;28;20049;-54
2020/12/02 05:14:52;;;;;;;3.88;3.47;;;18.80;49.20;;;;;;5015801;28;20013;-47
2020/12/02 05:17:25;;;;;;;3.78;3.22;;;18.80;49.20;;;;;;5011132;28;20041;-53
2020/12/02 05:20:11;;;;;;;3.72;3.13;;;18.80;49.20;;;;;;5015759;28;20072;-47
2020/12/02 05:22:45;;;;;;;3.70;3.35;;;18.80;49.20;;;;;;5015941;28;20025;-48
2020/12/02 05:25:29;;;;;;;3.40;3.10;;;18.80;49.20;;;;;;5016004;28;20033;-49
2020/12/02 05:28:18;;;;;;;3.55;3.08;;;18.80;49.20;;;;;;5015549;28;20033;-53
2020/12/02 05:30:45;;;;;;;4.13;3.45;;;18.80;49.20;;;;;;5000207;28;20350;-48
2020/12/02 05:33:10;;;;;;;4.63;3.90;;;18.70;49.20;;;;;;5015537;28;20022;-53
2020/12/02 05:35:43;;;;;;;3.83;3.03;;;18.70;49.20;;;;;;5015012;28;20036;-54
2020/12/02 05:38:13;;;;;;;3.90;3.50;;;18.80;49.30;;;;;;5015605;28;20376;-55
2020/12/02 05:40:38;;;;;;;5.05;3.47;;;18.70;49.20;;;;;;5015697;28;20032;-52
2020/12/02 05:43:22;;;;;;;3.35;3.00;;;18.70;49.20;;;;;;5015285;28;20026;-47
2020/12/02 05:45:51;;;;;;;3.20;2.78;;;18.70;49.20;;;;;;5015393;28;20026;-49
2020/12/02 05:48:39;;;;;;;4.47;3.33;;;18.70;49.20;;;;;;5015232;28;20054;-48
2020/12/02 05:51:11;;;;;;;3.47;3.05;;;18.70;49.20;;;;;;5015378;28;20022;-54
2020/12/02 05:53:58;;;;;;;4.13;3.30;;;18.70;49.20;;;;;;5015353;28;20076;-50
2020/12/02 05:56:23;;;;;;;4.50;3.60;;;18.70;49.20;;;;;;5014187;28;20464;-47
2020/12/02 05:58:48;;;;;;;4.53;3.42;;;18.70;49.20;;;;;;5015186;28;20034;-49
2020/12/02 06:01:20;;;;;;;5.15;3.70;;;18.70;49.20;;;;;;5015193;28;20029;-50
2020/12/02 06:03:50;;;;;;;4.93;3.60;;;18.70;49.20;;;;;;5015414;28;20022;-50
2020/12/02 06:06:16;;;;;;;3.90;3.47;;;18.70;49.30;;;;;;5015279;28;20037;-52
2020/12/02 06:08:47;;;;;;;3.53;2.85;;;18.60;49.20;;;;;;5014909;28;20030;-50
2020/12/02 06:11:16;;;;;;;4.28;3.33;;;18.60;49.80;;;;;;5014736;28;20489;-52
2020/12/02 06:14:01;;;;;;;3.83;3.15;;;18.60;49.20;;;;;;5014985;28;20026;-52
2020/12/02 06:16:29;;;;;;;3.53;2.90;;;18.60;49.20;;;;;;5015221;28;20021;-46
2020/12/02 06:19:22;;;;;;;4.95;3.70;;;18.60;49.20;;;;;;5015294;28;20040;-49
2020/12/02 06:21:49;;;;;;;4.68;3.30;;;18.60;49.20;;;;;;5014307;28;20057;-49
2020/12/02 06:24:34;;;;;;;3.65;2.83;;;18.60;49.20;;;;;;5015056;28;20030;-53
2020/12/02 06:27:02;;;;;;;4.07;3.13;;;18.60;49.20;;;;;;5014875;28;20353;-51
2020/12/02 06:29:35;;;;;;;4.25;2.97;;;18.60;49.20;;;;;;5014833;28;20033;-48
2020/12/02 06:32:12;;;;;;;3.72;3.25;;;18.60;49.20;;;;;;5014867;28;20034;-48
2020/12/02 06:34:38;;;;;;;4.18;2.92;;;18.60;49.20;;;;;;5014917;28;20026;-49
2020/12/02 06:37:23;;;;;;;5.05;3.13;;;18.60;49.20;;;;;;5014834;28;20033;-51
2020/12/02 06:39:54;;;;;;;3.10;2.78;;;18.60;49.20;;;;;;5015342;28;20041;-52
2020/12/02 06:42:36;;;;;;;4.72;3.42;;;18.60;49.20;;;;;;5014530;28;20030;-54
2020/12/02 06:45:23;;;;;;;3.63;2.97;;;18.60;49.20;;;;;;5014968;28;20033;-47
2020/12/02 06:47:49;;;;;;;4.57;3.05;;;18.50;49.20;;;;;;5014305;28;20189;-48
2020/12/02 06:50:17;;;;;;;3.58;3.22;;;18.60;49.20;;;;;;5014561;28;20034;-54
2020/12/02 06:52:43;;;;;;;3.58;3.10;;;18.50;49.20;;;;;;5014216;28;20026;-54
2020/12/02 06:55:14;;;;;;;3.92;2.95;;;18.60;49.30;;;;;;5014542;28;20156;-53
2020/12/02 06:57:40;;;;;;;4.03;3.40;;;18.50;49.20;;;;;;5014715;28;20454;-50
2020/12/02 07:00:14;;;;;;;3.97;3.22;;;18.50;49.20;;;;;;5014435;28;20030;-48
2020/12/02 07:02:53;;;;;;;4.05;2.97;;;18.60;49.30;;;;;;5014565;28;20037;-53
2020/12/02 07:05:42;;;;;;;4.75;3.35;;;18.50;49.20;;;;;;5014419;28;20111;-52
2020/12/02 07:08:19;;;;;;;4.05;2.60;;;18.50;49.20;;;;;;5016335;28;20036;-49
2020/12/02 07:11:05;;;;;;;3.55;3.00;;;18.50;49.20;;;;;;5018034;28;20045;-49
2020/12/02 07:13:34;;;;;;;5.22;3.08;;;18.50;49.20;;;;;;5017864;28;20097;-46
2020/12/02 07:16:00;;;;;;;3.97;3.20;;;18.50;49.20;;;;;;5018079;28;20105;-51
2020/12/02 07:18:27;;;;;;;4.13;3.22;;;18.50;49.20;;;;;;5017862;28;20026;-47
2020/12/02 07:21:19;;;;;;;2.88;2.60;;;18.50;49.30;;;;;;5018172;28;20026;-54
2020/12/02 07:23:44;;;;;;;3.28;2.92;;;18.50;49.20;;;;;;5017841;28;20056;-51
2020/12/02 07:26:12;;;;;;;2.85;2.53;;;18.50;49.30;;;;;;5017712;28;20813;-53
2020/12/02 07:28:38;;;;;;;3.58;3.00;;;18.50;49.30;;;;;;5017725;28;20038;-53
2020/12/02 07:31:14;;;;;;;3.00;2.67;;;18.50;49.30;;;;;;5017702;28;20326;-50
2020/12/02 07:33:52;;;;;;;2.95;2.50;;;18.50;49.30;;;;;;5017770;28;20022;-52
2020/12/02 07:36:23;;;;;;;3.25;2.95;;;18.50;49.30;;;;;;5017529;28;20036;-53
2020/12/02 07:39:04;;;;;;;3.58;2.83;;;18.50;49.30;;;;;;5017736;28;20074;-49
2020/12/02 07:41:30;;;;;;;3.72;2.80;;;18.40;49.20;;;;;;5017487;28;20113;-52
2020/12/02 07:43:55;;;;;;;3.60;2.72;;;18.50;49.30;;;;;;5017663;28;20136;-53
2020/12/02 07:46:22;;;;;;;4.10;3.10;;;18.40;49.20;;;;;;5017419;28;20069;-50
2020/12/02 07:48:52;;;;;;;4.03;2.70;;;18.40;49.20;;;;;;5017182;28;20099;-50
2020/12/02 07:51:25;;;;;;;4.10;3.22;;;18.40;49.20;;;;;;5017123;28;20036;-54
2020/12/02 07:54:01;;;;;;;3.72;2.60;;;18.40;49.20;;;;;;5016898;28;20526;-54
2020/12/02 07:56:33;;;;;;;5.80;3.10;;;18.30;49.20;;;;;;5017194;28;20030;-47
2020/12/02 07:59:16;;;;;;;4.10;2.40;;;18.40;49.60;;;;;;5016669;28;20030;-51
2020/12/02 08:01:58;;;;;;;7.43;2.97;;;18.40;49.40;;;;;;5016792;28;20287;-48
2020/12/02 08:04:23;;;;;;;4.25;2.70;;;18.40;49.40;;;;;;5017343;28;20026;-53
2020/12/02 08:07:02;;;;;;;3.75;2.65;;;18.40;49.50;;;;;;5017162;28;20464;-53
2020/12/02 08:09:33;;;;;;;4.97;2.85;;;18.30;49.60;;;;;;5017259;28;20095;-47
2020/12/02 08:12:01;;;;;;;5.65;3.17;;;18.40;49.70;;;;;;5017158;28;20036;-52
2020/12/02 08:14:28;;;;;;;8.13;4.47;;;18.40;49.80;;;;;;5016573;28;20018;-51
2020/12/02 08:17:25;;;;;;;7.50;3.50;;;18.30;49.00;;;;;;5017039;28;20125;-50
2020/12/02 08:19:54;;;;;;;8.10;3.85;;;18.30;49.10;;;;;;5015941;28;20026;-47
2020/12/02 08:22:39;;;;;;;11.13;4.18;;;18.20;49.50;;;;;;5016706;28;20088;-52
2020/12/02 08:25:25;;;;;;;6.45;2.70;;;18.20;49.50;;;;;;5016627;28;20044;-47
2020/12/02 08:28:00;;;;;;;3.70;2.22;;;18.20;49.80;;;;;;5016687;28;20014;-52
2020/12/02 08:30:29;;;;;;;4.72;2.83;;;18.20;49.90;;;;;;5016145;28;20352;-49
2020/12/02 08:32:57;;;;;;;4.40;2.47;;;18.20;50.00;;;;;;5016504;28;20072;-51
2020/12/02 08:35:26;;;;;;;5.78;2.55;;;18.20;50.00;;;;;;5016616;28;20101;-48
2020/12/02 08:37:54;;;;;;;9.02;2.25;;;18.30;50.10;;;;;;5016554;28;20022;-52
2020/12/02 08:40:41;;;;;;;2.95;2.50;;;18.30;50.00;;;;;;5016333;28;20325;-50
2020/12/02 08:43:45;;;;;;;5.22;2.17;;;18.40;50.00;;;;;;5016166;28;20456;-52
2020/12/02 08:46:16;;;;;;;7.45;3.17;;;18.50;49.90;;;;;;5016528;28;20097;-50
2020/12/02 08:48:43;;;;;;;8.43;4.18;;;18.50;50.00;;;;;;5016101;28;20053;-48
2020/12/02 08:51:12;;;;;;;9.20;3.30;;;18.60;49.90;;;;;;5016236;28;20129;-52
2020/12/02 08:53:38;;;;;;;5.15;3.13;;;18.70;49.80;;;;;;5016423;28;20029;-47
2020/12/02 08:56:04;;;;;;;5.53;2.80;;;18.80;49.80;;;;;;5015957;28;20026;-52
2020/12/02 08:58:29;;;;;;;8.80;3.33;;;18.80;49.70;;;;;;5015764;28;20026;-53
2020/12/02 09:00:55;;;;;;;4.38;2.67;;;19.00;49.60;;;;;;5015766;28;20088;-48
2020/12/02 09:03:24;;;;;;;5.05;2.97;;;19.10;50.20;;;;;;5016023;28;20041;-47
2020/12/02 09:05:50;;;;;;;5.47;3.30;;;19.20;49.40;;;;;;5016262;28;20091;-47
2020/12/02 09:08:15;;;;;;;8.07;2.55;;;19.30;49.30;;;;;;5016219;28;20030;-50
2020/12/02 09:10:41;;;;;;;9.55;2.40;;;19.40;49.30;;;;;;5016017;28;20112;-48
2020/12/02 09:13:06;;;;;;;6.32;2.85;;;19.50;49.20;;;;;;5015870;28;20425;-47
2020/12/02 09:15:32;;;;;;;3.22;2.35;;;19.50;49.10;;;;;;4997660;28;20033;-50
2020/12/02 09:17:58;;;;;;;6.32;2.42;;;19.60;49.10;;;;;;5015517;28;20088;-46
2020/12/02 09:20:24;;;;;;;10.63;2.80;;;19.60;49.00;;;;;;5015772;28;20025;-52
2020/12/02 09:22:51;;;;;;;4.80;2.95;;;19.70;49.10;;;;;;5015565;28;20105;-47
2020/12/02 09:25:17;;;;;;;6.38;2.67;;;19.70;49.00;;;;;;5015644;28;20025;-47
2020/12/02 09:27:43;;;;;;;4.63;2.75;;;19.80;49.00;;;;;;5015684;28;20040;-49
2020/12/02 09:30:09;;;;;;;2.72;2.42;;;19.80;49.00;;;;;;5014913;28;20041;-51
2020/12/02 09:32:35;;;;;;;6.53;2.70;;;19.90;49.00;;;;;;5015315;28;20451;-45
2020/12/02 09:35:01;;;;;;;5.78;2.22;;;19.90;48.90;;;;;;5015718;28;20033;-52
2020/12/02 09:37:26;;;;;;;5.70;2.50;;;19.90;48.90;;;;;;5015562;28;20049;-51
2020/12/02 09:39:54;;;;;;;4.65;2.25;;;19.90;48.90;;;;;;5015322;28;20453;-52
2020/12/02 09:42:28;;;;;;;2.30;2.10;;;20.00;48.90;;;;;;5015439;28;20103;-51
2020/12/02 09:45:09;;;;;;;3.75;2.33;;;20.00;48.90;;;;;;5015563;28;20041;-52
2020/12/02 09:47:36;;;;;;;2.35;2.00;;;20.00;48.90;;;;;;5015125;28;20021;-45
2020/12/02 09:50:02;;;;;;;2.97;2.15;;;20.00;48.90;;;;;;5015243;28;20042;-51
2020/12/02 09:52:49;;;;;;;3.38;2.33;;;20.00;48.80;;;;;;5015113;28;20071;-48
2020/12/02 09:55:19;;;;;;;6.15;2.40;;;20.00;48.70;;;;;;5014809;28;20365;-51
2020/12/02 09:57:45;;;;;;;7.30;2.50;;;20.00;48.80;;;;;;5015131;28;20018;-47
2020/12/02 10:00:12;;;;;;;4.60;2.42;;;20.00;48.90;;;;;;5015102;28;20037;-52
2020/12/02 10:03:13;;;;;;;6.40;2.33;;;20.00;48.90;;;;;;5014803;28;20022;-52
2020/12/02 10:05:39;;;;;;;4.25;2.38;;;20.00;49.00;;;;;;5014750;28;20465;-46
2020/12/02 10:08:11;;;;;;;4.00;2.00;;;20.00;49.20;;;;;;5014870;28;20029;-51
2020/12/02 10:10:48;;;;;;;2.45;1.98;;;20.00;49.40;;;;;;5015162;28;20062;-49
2020/12/02 10:13:48;;;;;;;2.58;2.08;;;20.00;50.10;;;;;;5015200;28;20061;-54
2020/12/02 10:16:43;;;;;;;4.55;2.15;;;20.00;49.60;;;;;;5015519;28;20164;-51
2020/12/02 10:19:34;;;;;;;2.88;1.85;;;20.00;49.70;;;;;;5015046;28;20030;-48
2020/12/02 10:22:08;;;;;;;3.83;2.55;;;20.00;49.70;;;;;;5014660;28;20444;-49
2020/12/02 10:24:52;;;;;;;2.47;2.08;;;20.00;49.60;;;;;;5014924;28;20559;-54
2020/12/02 10:27:24;;;;;;;2.97;1.98;;;20.00;49.60;;;;;;5014575;28;20030;-52
2020/12/02 10:30:14;;;;;;;2.85;1.92;;;20.00;49.60;;;;;;5014427;28;20368;-53
2020/12/02 10:33:08;;;;;;;3.05;2.00;;;20.00;49.60;;;;;;5014654;28;20021;-52
2020/12/02 10:35:37;;;;;;;4.18;2.05;;;20.10;49.70;;;;;;5014617;28;20145;-48
2020/12/02 10:38:07;;;;;;;5.43;1.98;;;20.00;49.70;;;;;;5015085;28;20033;-48
2020/12/02 10:40:44;;;;;;;3.72;2.00;;;20.00;49.70;;;;;;5014717;28;20026;-48
2020/12/02 10:43:33;;;;;;;5.10;2.50;;;20.00;49.70;;;;;;5018238;28;20101;-51
2020/12/02 10:46:02;;;;;;;3.30;2.17;;;20.10;49.70;;;;;;5018498;28;20033;-54
2020/12/02 10:48:47;;;;;;;3.30;2.17;;;20.10;49.80;;;;;;5018378;28;20069;-53
2020/12/02 10:51:13;;;;;;;3.55;2.25;;;20.10;49.80;;;;;;5018439;28;20025;-50
2020/12/02 10:53:42;;;;;;;2.78;2.10;;;20.10;49.70;;;;;;5018360;28;20034;-54
2020/12/02 10:56:08;;;;;;;3.92;2.50;;;20.10;49.70;;;;;;5018397;28;20030;-48
2020/12/02 10:58:34;;;;;;;5.30;2.47;;;20.10;49.70;;;;;;5018461;28;20066;-54
2020/12/02 11:01:02;;;;;;;8.73;3.33;;;20.10;49.70;;;;;;5017951;28;20025;-49
2020/12/02 11:03:32;;;;;;;8.23;4.45;;;20.10;49.30;;;;;;5018218;28;20037;-56
2020/12/02 11:06:10;;;;;;;14.23;6.13;;;20.10;48.30;;;;;;5018480;28;20049;-53
2020/12/02 11:09:02;;;;;;;9.95;6.13;;;20.10;47.60;;;;;;5017993;28;20040;-55
2020/12/02 11:11:56;;;;;;;18.80;7.10;;;20.10;47.30;;;;;;5018022;28;20022;-49
2020/12/02 11:14:43;;;;;;;9.43;6.80;;;20.10;47.00;;;;;;5018388;28;20040;-53
2020/12/02 11:17:54;;;;;;;10.93;6.60;;;20.00;46.90;;;;;;5018202;28;20026;-50
2020/12/02 11:20:41;;;;;;;5.97;3.92;;;20.00;46.70;;;;;;5012486;28;20045;-52
2020/12/02 11:23:13;;;;;;;6.63;3.40;;;20.00;47.50;;;;;;5018392;28;20026;-55
2020/12/02 11:26:22;;;;;;;6.03;3.13;;;20.00;48.10;;;;;;5017724;28;20018;-49
2020/12/02 11:28:52;;;;;;;4.97;3.35;;;20.00;48.50;;;;;;4918984;29;20051;-52
2020/12/02 11:31:38;;;;;;;3.40;2.50;;;20.00;48.80;;;;;;5005716;28;20030;-54
2020/12/02 11:34:28;;;;;;;11.57;3.42;;;20.00;48.90;;;;;;5017807;28;20022;-56
2020/12/02 11:37:07;;;;;;;7.43;4.40;;;20.10;49.10;;;;;;5017268;28;20062;-47
2020/12/02 11:39:51;;;;;;;9.80;5.00;;;20.10;48.80;;;;;;5017336;28;20018;-50
2020/12/02 11:42:22;;;;;;;6.05;3.67;;;20.10;48.30;;;;;;5017410;28;20100;-51
2020/12/02 11:45:00;;;;;;;8.02;4.18;;;20.10;48.30;;;;;;5017517;28;20046;-50
2020/12/02 11:47:57;;;;;;;6.50;3.80;;;20.10;48.20;;;;;;5017087;28;20026;-48
2020/12/02 11:50:33;;;;;;;9.00;4.65;;;20.10;48.20;;;;;;5017590;28;20050;-50
2020/12/02 11:53:13;;;;;;;7.20;4.30;;;20.10;48.20;;;;;;5016577;28;20041;-54
2020/12/02 11:55:38;;;;;;;7.22;4.32;;;20.10;48.20;;;;;;5016903;28;20022;-53
2020/12/02 11:58:09;;;;;;;9.60;4.63;;;20.10;48.10;;;;;;5016782;28;20346;-52
2020/12/02 12:00:34;;;;;;;6.82;4.30;;;20.10;48.10;;;;;;5017162;28;20108;-52
2020/12/02 12:03:19;;;;;;;6.53;4.15;;;20.10;48.10;;;;;;5017326;28;20113;-50
2020/12/02 12:06:07;;;;;;;6.97;4.45;;;20.10;48.10;;;;;;5017379;28;20037;-50
2020/12/02 12:08:55;;;;;;;5.90;3.85;;;20.10;48.10;;;;;;5016512;28;20038;-53
2020/12/02 12:11:34;;;;;;;7.55;3.75;;;20.10;48.10;;;;;;5017410;28;20103;-47
2020/12/02 12:14:18;;;;;;;5.90;3.33;;;20.10;48.10;;;;;;5017121;28;20030;-52
2020/12/02 12:17:16;;;;;;;5.53;4.07;;;20.10;48.20;;;;;;5016696;28;20109;-49
2020/12/02 12:19:49;;;;;;;8.23;3.85;;;20.00;48.70;;;;;;5016820;28;20025;-53
2020/12/02 12:22:27;;;;;;;8.75;3.55;;;20.00;48.30;;;;;;5017048;28;20133;-53
2020/12/02 12:25:15;;;;;;;4.93;2.92;;;20.00;48.60;;;;;;5016448;28;20053;-54
2020/12/02 12:27:42;;;;;;;6.70;3.28;;;19.90;48.80;;;;;;5015732;28;20046;-55
2020/12/02 12:30:08;;;;;;;4.47;3.28;;;20.00;49.00;;;;;;5016495;28;20048;-49
2020/12/02 12:32:43;;;;;;;13.45;3.25;;;19.90;49.10;;;;;;5016496;28;20129;-54
2020/12/02 12:35:34;;;;;;;7.10;3.95;;;19.90;49.40;;;;;;5016118;28;20449;-48
2020/12/02 12:38:17;;;;;;;11.15;3.90;;;19.90;49.50;;;;;;5016471;28;20026;-51
2020/12/02 12:40:52;;;;;;;8.45;2.85;;;19.90;49.80;;;;;;5016057;28;20459;-53
2020/12/02 12:43:21;;;;;;;4.13;3.10;;;19.90;49.70;;;;;;5016341;28;20018;-50
2020/12/02 12:45:53;;;;;;;6.55;2.60;;;19.90;49.70;;;;;;5016093;28;20038;-50
2020/12/02 12:48:21;;;;;;;3.90;3.20;;;19.90;49.60;;;;;;5015812;28;20046;-51
2020/12/02 12:50:52;;;;;;;6.93;2.92;;;20.00;49.60;;;;;;5016174;28;20041;-49
2020/12/02 12:53:19;;;;;;;3.88;2.55;;;20.00;49.50;;;;;;5016443;28;20034;-53
2020/12/02 12:55:44;;;;;;;5.18;3.58;;;20.00;49.40;;;;;;5015888;28;20033;-49
2020/12/02 12:58:16;;;;;;;4.40;2.90;;;20.10;49.40;;;;;;5016241;28;20100;-53
2020/12/02 13:00:51;;;;;;;4.00;2.55;;;20.10;49.30;;;;;;5016371;28;20026;-50
2020/12/02 13:03:29;;;;;;;3.80;2.63;;;20.10;49.20;;;;;;5016021;28;20037;-52
2020/12/02 13:06:04;;;;;;;6.00;2.90;;;20.20;49.20;;;;;;5015608;28;20143;-51
2020/12/02 13:08:40;;;;;;;3.28;2.58;;;20.20;49.20;;;;;;5016051;28;20352;-50
2020/12/02 13:11:17;;;;;;;3.28;2.83;;;20.20;49.10;;;;;;5016134;28;20076;-53
2020/12/02 13:13:57;;;;;;;5.20;2.88;;;20.20;49.10;;;;;;5015782;28;20038;-54
2020/12/02 13:16:33;;;;;;;5.10;2.97;;;20.20;49.00;;;;;;5015453;28;20453;-50
2020/12/02 13:19:26;;;;;;;3.42;2.78;;;20.20;49.00;;;;;;5015264;28;20029;-52